Terminal Aerodrome Forecast
Issued by NWS

Home | Current Version | Previous Version | Graphics & Text | Print | Product List | Glossary On
Versions: 1 2 3 4 5 6 7 8 9 10 11 12 13 14 15 16 17 18 19 20 21 22 23 24
302
FTUS43 KMPX 060902 AAB
TAFAXN
TAF AMD
KAXN 060902Z 0609/0706 19005KT 2SM BR VV002
     FM061200 21008KT 6SM BR BKN100
     FM061600 21012KT P6SM OVC070
     FM070100 25015G23KT P6SM SCT015 SCT120=

USA.gov is the U.S. government's official web portal to all federal, state and local government web resources and services.